createdAt,value
2022-11-15T00:00:34.242Z,9.93
2022-11-15T00:03:55.472Z,10.27
2022-11-15T00:07:40.319Z,10.57
2022-11-15T00:11:01.784Z,10.25
2022-11-15T00:14:22.945Z,10.20
2022-11-15T00:17:44.201Z,10.40
2022-11-15T00:21:08.151Z,10.20
2022-11-15T00:24:30.023Z,9.77
2022-11-15T00:27:52.673Z,9.20
2022-11-15T00:31:15.186Z,10.23
2022-11-15T00:34:37.435Z,10.23
2022-11-15T00:37:59.547Z,9.85
2022-11-15T00:41:21.205Z,9.27
2022-11-15T00:44:44.048Z,9.07
2022-11-15T00:48:06.001Z,9.70
2022-11-15T00:51:27.238Z,8.85
2022-11-15T00:54:48.789Z,9.75
2022-11-15T00:58:10.299Z,9.32
2022-11-15T01:01:31.468Z,9.45
2022-11-15T01:04:52.863Z,8.63
2022-11-15T01:08:15.703Z,9.30
2022-11-15T01:11:36.855Z,9.35
2022-11-15T01:14:58.131Z,8.80
2022-11-15T01:18:19.059Z,9.20
2022-11-15T01:21:40.213Z,9.63
2022-11-15T01:25:01.274Z,9.05
2022-11-15T01:28:22.467Z,9.45
2022-11-15T01:31:43.752Z,9.55
2022-11-15T01:35:05.434Z,8.90
2022-11-15T01:38:26.517Z,8.97
2022-11-15T01:41:48.635Z,9.75
2022-11-15T01:45:37.322Z,9.45
2022-11-15T01:49:04.855Z,9.25
2022-11-15T01:52:27.843Z,8.80
2022-11-15T01:55:48.914Z,8.60
2022-11-15T01:59:11.685Z,8.93
2022-11-15T02:02:34.627Z,8.82
2022-11-15T02:05:56.146Z,9.38
2022-11-15T02:09:18.413Z,9.10
2022-11-15T02:12:40.372Z,9.30
2022-11-15T02:16:22.282Z,9.35
2022-11-15T02:20:11.919Z,9.15
2022-11-15T02:23:52.289Z,9.35
2022-11-15T02:27:38.135Z,8.98
2022-11-15T02:31:18.364Z,9.13
2022-11-15T02:34:47.989Z,9.07
2022-11-15T02:38:20.319Z,9.57
2022-11-15T02:41:44.980Z,9.00
2022-11-15T02:45:10.350Z,9.25
2022-11-15T02:48:33.452Z,8.83
2022-11-15T02:51:56.434Z,9.05
2022-11-15T02:55:44.373Z,9.90
2022-11-15T02:59:33.381Z,8.80
2022-11-15T03:03:03.468Z,8.60
2022-11-15T03:06:38.444Z,8.83
2022-11-15T03:10:16.174Z,8.57
2022-11-15T03:13:46.368Z,8.52
2022-11-15T03:17:20.239Z,8.88
2022-11-15T03:20:44.561Z,9.13
2022-11-15T03:24:08.746Z,8.67
2022-11-15T03:27:34.651Z,8.77
2022-11-15T03:30:57.882Z,8.68
2022-11-15T03:34:24.893Z,11.13
2022-11-15T03:38:01.498Z,12.57
2022-11-15T03:41:29.197Z,9.50
2022-11-15T03:45:04.404Z,9.65
2022-11-15T03:48:28.628Z,10.90
2022-11-15T03:51:50.111Z,9.68
2022-11-15T03:55:14.937Z,10.57
2022-11-15T03:58:36.168Z,9.37
2022-11-15T04:01:57.355Z,9.68
2022-11-15T04:05:18.547Z,9.52
2022-11-15T04:08:39.827Z,9.43
2022-11-15T04:12:01.073Z,10.13
2022-11-15T04:15:24.504Z,9.57
2022-11-15T04:18:45.442Z,10.23
2022-11-15T04:22:27.413Z,9.35
2022-11-15T04:25:52.380Z,9.80
2022-11-15T04:29:31.835Z,9.88
2022-11-15T04:32:52.533Z,9.77
2022-11-15T04:36:32.098Z,9.68
2022-11-15T04:39:53.262Z,9.85
2022-11-15T04:43:14.174Z,9.50
2022-11-15T04:46:35.408Z,10.20
2022-11-15T04:49:57.134Z,9.37
2022-11-15T04:53:17.995Z,9.90
2022-11-15T04:56:38.925Z,9.93
2022-11-15T04:59:59.844Z,9.73
2022-11-15T05:03:39.938Z,10.07
2022-11-15T05:07:01.520Z,9.17
2022-11-15T05:10:22.726Z,9.00
2022-11-15T05:13:44.114Z,9.43
2022-11-15T05:17:05.315Z,10.13
2022-11-15T05:20:33.893Z,10.10
2022-11-15T05:23:55.064Z,9.73
2022-11-15T05:27:16.033Z,9.77
2022-11-15T05:30:39.146Z,10.30
2022-11-15T05:34:01.936Z,9.57
2022-11-15T05:37:22.965Z,10.02
2022-11-15T05:40:56.238Z,9.60
2022-11-15T05:44:20.356Z,9.73
2022-11-15T05:47:41.986Z,10.25
2022-11-15T05:51:05.135Z,10.02
2022-11-15T05:54:26.548Z,9.85
2022-11-15T05:57:48.406Z,10.40
2022-11-15T06:01:10.296Z,9.85
2022-11-15T06:04:31.503Z,10.90
2022-11-15T06:07:52.948Z,10.93
2022-11-15T06:11:14.297Z,9.98
2022-11-15T06:14:35.489Z,9.67
2022-11-15T06:18:00.217Z,9.80
2022-11-15T06:21:21.557Z,10.00
2022-11-15T06:24:44.990Z,10.52
2022-11-15T06:28:06.702Z,10.10
2022-11-15T06:31:28.276Z,10.40
2022-11-15T06:34:49.774Z,11.93
2022-11-15T06:38:11.778Z,13.82
2022-11-15T06:41:36.856Z,12.27
2022-11-15T06:44:58.529Z,11.63
2022-11-15T06:48:19.855Z,10.90
2022-11-15T06:51:41.766Z,11.55
2022-11-15T06:55:02.708Z,12.02
2022-11-15T06:58:23.990Z,12.15
2022-11-15T07:01:46.160Z,11.80
2022-11-15T07:05:08.145Z,12.67
2022-11-15T07:08:30.425Z,12.15
2022-11-15T07:11:51.879Z,12.15
2022-11-15T07:15:13.271Z,11.95
2022-11-15T07:18:36.414Z,12.10
2022-11-15T07:21:57.793Z,11.80
2022-11-15T07:25:19.606Z,12.07
2022-11-15T07:28:40.918Z,12.82
2022-11-15T07:32:02.221Z,12.13
2022-11-15T07:35:24.741Z,12.48
2022-11-15T07:38:45.804Z,11.70
2022-11-15T07:42:26.028Z,11.80
2022-11-15T07:45:47.044Z,12.00
2022-11-15T07:49:08.529Z,11.88
2022-11-15T07:52:29.628Z,12.55
2022-11-15T07:55:51.621Z,11.10
2022-11-15T07:59:13.277Z,11.98
2022-11-15T08:02:35.188Z,12.38
2022-11-15T08:05:56.422Z,11.35
2022-11-15T08:09:17.595Z,12.63
2022-11-15T08:12:39.387Z,11.90
2022-11-15T08:16:02.252Z,11.68
2022-11-15T08:19:27.169Z,12.77
2022-11-15T08:22:48.520Z,11.60
2022-11-15T08:26:10.319Z,12.25
2022-11-15T08:29:31.812Z,11.43
2022-11-15T08:32:54.219Z,11.50
2022-11-15T08:36:17.569Z,11.98
2022-11-15T08:39:39.054Z,11.15
2022-11-15T08:43:03.536Z,11.52
2022-11-15T08:46:24.922Z,12.73
2022-11-15T08:49:46.028Z,12.23
2022-11-15T08:53:09.590Z,12.02
2022-11-15T08:56:31.219Z,11.27
2022-11-15T08:59:52.911Z,11.32
2022-11-15T09:03:17.083Z,11.13
2022-11-15T09:06:42.981Z,10.65
2022-11-15T09:10:05.198Z,11.38
2022-11-15T09:13:28.418Z,10.80
2022-11-15T09:16:49.970Z,12.10
2022-11-15T09:20:11.657Z,10.90
2022-11-15T09:23:39.568Z,10.85
2022-11-15T09:27:00.774Z,10.77
2022-11-15T09:30:23.335Z,11.13
2022-11-15T09:33:46.098Z,9.95
2022-11-15T09:37:07.450Z,10.50
2022-11-15T09:40:30.599Z,10.45
2022-11-15T09:44:04.182Z,10.45
2022-11-15T09:47:56.529Z,10.90
2022-11-15T09:51:47.960Z,11.43
2022-11-15T09:54:54.786Z,10.80
2022-11-15T09:58:23.964Z,10.85
2022-11-15T10:02:18.147Z,10.88
2022-11-15T10:05:25.125Z,10.70
2022-11-15T10:08:55.862Z,10.00
2022-11-15T10:11:58.539Z,10.70
2022-11-15T10:15:23.624Z,10.35
2022-11-15T10:18:43.589Z,10.27
2022-11-15T10:22:03.315Z,10.43
2022-11-15T10:25:21.295Z,10.15
2022-11-15T10:28:29.852Z,9.47
2022-11-15T10:31:32.740Z,10.00
2022-11-15T10:34:37.523Z,10.18
2022-11-15T10:37:40.121Z,9.90
2022-11-15T10:40:44.841Z,9.98
2022-11-15T10:44:08.384Z,10.30
2022-11-15T10:47:32.450Z,9.68
2022-11-15T10:50:45.802Z,9.82
2022-11-15T10:53:48.684Z,9.98
2022-11-15T10:57:23.461Z,9.80
2022-11-15T11:00:40.718Z,10.17
2022-11-15T11:03:45.495Z,9.90
2022-11-15T11:06:53.559Z,10.93
2022-11-15T11:13:55.031Z,10.57
2022-11-15T11:17:26.827Z,10.00
2022-11-15T11:20:42.802Z,9.80
2022-11-15T11:24:09.793Z,10.35
2022-11-15T11:27:27.722Z,9.40
2022-11-15T11:31:06.758Z,9.55
2022-11-15T11:34:12.304Z,9.50
2022-11-15T11:37:36.624Z,9.60
2022-11-15T11:40:46.378Z,9.90
2022-11-15T11:44:06.608Z,9.48
2022-11-15T11:47:16.134Z,10.30
2022-11-15T11:50:21.826Z,9.13
2022-11-15T11:53:42.341Z,9.52
2022-11-15T11:56:49.692Z,9.85
2022-11-15T12:00:17.637Z,9.82
2022-11-15T12:03:35.373Z,10.00
2022-11-15T12:07:25.505Z,9.40
2022-11-15T12:10:32.422Z,9.32
2022-11-15T12:13:37.837Z,9.32
2022-11-15T12:16:47.978Z,9.73
2022-11-15T12:19:51.016Z,9.80
2022-11-15T12:23:08.958Z,9.53
2022-11-15T12:26:20.034Z,9.43
2022-11-15T12:29:39.587Z,8.98
2022-11-15T12:32:53.847Z,9.07
2022-11-15T12:36:20.723Z,9.60
2022-11-15T12:40:12.532Z,9.33
2022-11-15T12:43:16.492Z,9.27
2022-11-15T12:46:31.053Z,9.20
2022-11-15T12:49:36.538Z,9.57
2022-11-15T12:53:18.661Z,9.45
2022-11-15T12:56:22.681Z,9.17
2022-11-15T12:59:54.281Z,9.20
2022-11-15T13:03:21.863Z,9.68
2022-11-15T13:06:45.366Z,9.48
2022-11-15T13:09:47.825Z,9.85
2022-11-15T13:12:53.701Z,9.17
2022-11-15T13:15:59.591Z,8.95
2022-11-15T13:19:03.348Z,9.10
2022-11-15T13:22:29.079Z,9.20
2022-11-15T13:25:40.653Z,9.40
2022-11-15T13:28:47.387Z,8.87
2022-11-15T13:31:53.553Z,8.90
2022-11-15T13:34:56.196Z,8.80
2022-11-15T13:38:05.174Z,8.88
2022-11-15T13:41:22.520Z,8.95
2022-11-15T13:44:31.203Z,9.03
2022-11-15T13:47:34.145Z,9.15
2022-11-15T13:50:39.729Z,9.55
2022-11-15T13:53:47.637Z,8.82
2022-11-15T13:57:04.061Z,8.85
2022-11-15T14:00:23.833Z,9.10
2022-11-15T14:03:32.332Z,8.82
2022-11-15T14:06:46.793Z,8.85
2022-11-15T14:09:49.908Z,8.38
2022-11-15T14:12:53.951Z,9.18
2022-11-15T14:16:14.245Z,8.43
2022-11-15T14:19:22.587Z,9.02
2022-11-15T14:22:30.660Z,9.63
2022-11-15T14:25:36.157Z,9.30
2022-11-15T14:28:41.508Z,8.82
2022-11-15T14:31:45.176Z,9.67
2022-11-15T14:34:49.804Z,9.45
2022-11-15T14:37:52.366Z,9.18
2022-11-15T14:40:56.863Z,9.73
2022-11-15T14:43:59.504Z,9.25
2022-11-15T14:47:01.964Z,9.97
2022-11-15T14:50:04.964Z,9.20
2022-11-15T14:53:08.143Z,9.88
2022-11-15T14:56:11.229Z,8.88
2022-11-15T14:59:13.719Z,9.35
2022-11-15T15:02:25.162Z,9.50
2022-11-15T15:05:54.170Z,9.93
2022-11-15T15:08:56.673Z,10.13
2022-11-15T15:12:03.483Z,9.65
2022-11-15T15:15:38.560Z,9.98
2022-11-15T15:18:41.379Z,9.10
2022-11-15T15:21:43.864Z,9.60
2022-11-15T15:24:47.581Z,9.35
2022-11-15T15:27:50.810Z,9.23
2022-11-15T15:30:53.866Z,10.15
2022-11-15T15:33:56.415Z,9.07
2022-11-15T15:37:25.189Z,9.85
2022-11-15T15:40:33.417Z,9.43
2022-11-15T15:43:35.898Z,9.45
2022-11-15T15:46:38.380Z,9.55
2022-11-15T15:49:41.325Z,9.10
2022-11-15T15:52:43.818Z,9.00
2022-11-15T15:55:46.281Z,9.98
2022-11-15T15:58:48.763Z,14.55
2022-11-15T16:01:51.255Z,11.98
2022-11-15T16:04:53.674Z,13.40
2022-11-15T16:07:56.181Z,12.90
2022-11-15T16:11:00.107Z,13.52
2022-11-15T16:14:02.790Z,13.57
2022-11-15T16:17:05.364Z,13.32
2022-11-15T16:20:36.611Z,12.57
2022-11-15T16:23:40.260Z,12.02
2022-11-15T16:26:44.143Z,11.93
2022-11-15T16:29:47.636Z,11.15
2022-11-15T16:32:50.494Z,11.95
2022-11-15T16:35:53.134Z,11.77
2022-11-15T16:38:55.638Z,13.00
2022-11-15T16:41:59.620Z,11.80
2022-11-15T16:45:02.274Z,11.70
2022-11-15T16:48:05.264Z,11.98
2022-11-15T16:51:10.678Z,13.03
2022-11-15T16:54:13.417Z,11.90
2022-11-15T16:57:16.886Z,12.02
2022-11-15T17:00:20.423Z,11.90
2022-11-15T17:03:24.350Z,12.35
2022-11-15T17:06:27.371Z,11.17
2022-11-15T17:09:29.948Z,12.02
2022-11-15T17:12:32.970Z,12.07
2022-11-15T17:15:35.711Z,11.82
2022-11-15T17:18:38.728Z,11.73
2022-11-15T17:21:43.458Z,10.50
2022-11-15T17:24:54.803Z,11.32
2022-11-15T17:27:57.777Z,10.98
2022-11-15T17:31:01.173Z,11.05
2022-11-15T17:34:05.686Z,11.55
2022-11-15T17:37:08.245Z,10.90
2022-11-15T17:40:12.425Z,10.90
2022-11-15T17:43:15.062Z,11.70
2022-11-15T17:46:20.949Z,10.82
2022-11-15T17:49:23.670Z,12.18
2022-11-15T17:52:26.597Z,11.37
2022-11-15T17:55:29.277Z,11.00
2022-11-15T17:58:33.144Z,11.07
2022-11-15T18:01:38.160Z,10.73
2022-11-15T18:04:40.826Z,11.52
2022-11-15T18:07:43.341Z,10.60
2022-11-15T18:10:46.376Z,10.25
2022-11-15T18:13:53.071Z,11.43
2022-11-15T18:16:57.467Z,10.52
2022-11-15T18:20:00.270Z,10.68
2022-11-15T18:23:02.841Z,11.27
2022-11-15T18:26:06.928Z,9.98
2022-11-15T18:29:10.457Z,11.55
2022-11-15T18:32:15.460Z,11.13
2022-11-15T18:35:18.384Z,11.38
2022-11-15T18:38:21.042Z,10.43
2022-11-15T18:41:31.002Z,10.98
2022-11-15T18:44:33.641Z,11.32
2022-11-15T18:47:37.760Z,10.85
2022-11-15T18:50:41.671Z,11.18
2022-11-15T18:53:44.791Z,10.07
2022-11-15T18:56:47.675Z,10.98
2022-11-15T18:59:50.543Z,10.68
2022-11-15T19:02:56.463Z,11.60
2022-11-15T19:06:07.802Z,11.02
2022-11-15T19:09:12.082Z,10.50
2022-11-15T19:12:14.595Z,11.95
2022-11-15T19:15:18.053Z,10.65
2022-11-15T19:18:21.134Z,10.27
2022-11-15T19:21:25.399Z,11.13
2022-11-15T19:24:29.282Z,10.53
2022-11-15T19:27:37.038Z,11.02
2022-11-15T19:30:42.280Z,10.20
2022-11-15T19:33:46.104Z,10.63
2022-11-15T19:36:49.019Z,10.80
2022-11-15T19:39:51.920Z,10.67
2022-11-15T19:42:55.029Z,10.00
2022-11-15T19:46:02.445Z,10.00
2022-11-15T19:49:08.342Z,10.52
2022-11-15T19:52:11.260Z,11.13
2022-11-15T19:55:14.157Z,10.97
2022-11-15T19:58:18.202Z,10.68
2022-11-15T20:01:26.706Z,10.18
2022-11-15T20:04:29.498Z,11.00
2022-11-15T20:07:32.087Z,10.95
2022-11-15T20:10:36.314Z,10.77
2022-11-15T20:13:39.412Z,10.45
2022-11-15T20:16:42.496Z,10.40
2022-11-15T20:19:45.470Z,10.88
2022-11-15T20:22:48.260Z,10.35
2022-11-15T20:25:51.346Z,10.30
2022-11-15T20:29:01.420Z,10.77
2022-11-15T20:32:04.304Z,10.45
2022-11-15T20:35:07.271Z,10.52
2022-11-15T20:38:12.587Z,11.13
2022-11-15T20:41:15.593Z,11.00
2022-11-15T20:44:18.407Z,10.70
2022-11-15T20:47:24.223Z,11.13
2022-11-15T20:50:46.263Z,10.30
2022-11-15T20:53:49.916Z,10.52
2022-11-15T20:56:52.709Z,10.60
2022-11-15T20:59:58.054Z,10.85
2022-11-15T21:03:06.906Z,11.13
2022-11-15T21:06:10.607Z,10.70
2022-11-15T21:09:32.202Z,11.23
2022-11-15T21:12:34.767Z,10.43
2022-11-15T21:15:37.344Z,10.98
2022-11-15T21:18:39.829Z,10.93
2022-11-15T21:21:42.361Z,10.52
2022-11-15T21:24:44.956Z,10.73
2022-11-15T21:27:47.571Z,10.60
2022-11-15T21:30:58.823Z,10.57
2022-11-15T21:34:02.929Z,10.77
2022-11-15T21:37:06.077Z,10.45
2022-11-15T21:40:10.819Z,11.07
2022-11-15T21:43:13.356Z,11.07
2022-11-15T21:46:15.890Z,10.77
2022-11-15T21:49:18.379Z,10.55
2022-11-15T21:52:20.939Z,9.95
2022-11-15T21:55:23.504Z,9.93
2022-11-15T21:58:26.361Z,10.73
2022-11-15T22:01:47.449Z,10.05
2022-11-15T22:04:51.217Z,10.98
2022-11-15T22:07:53.694Z,10.55
2022-11-15T22:10:59.118Z,10.27
2022-11-15T22:14:01.710Z,10.10
2022-11-15T22:17:04.181Z,10.57
2022-11-15T22:20:29.552Z,10.90
2022-11-15T22:23:31.801Z,10.73
2022-11-15T22:26:34.285Z,10.52
2022-11-15T22:29:37.016Z,10.80
2022-11-15T22:32:39.561Z,11.60
2022-11-15T22:35:42.758Z,10.85
2022-11-15T22:38:45.297Z,10.63
2022-11-15T22:41:47.947Z,10.75
2022-11-15T22:44:50.444Z,11.10
2022-11-15T22:47:52.948Z,11.00
2022-11-15T22:50:56.849Z,10.98
2022-11-15T22:53:59.339Z,10.77
2022-11-15T22:57:02.022Z,10.80
2022-11-15T23:00:11.593Z,10.10
2022-11-15T23:03:15.068Z,11.00
2022-11-15T23:06:17.540Z,11.52
2022-11-15T23:09:20.295Z,11.05
2022-11-15T23:12:41.788Z,11.35
2022-11-15T23:16:39.263Z,11.10
2022-11-15T23:20:22.065Z,10.63
2022-11-15T23:23:44.286Z,11.18
2022-11-15T23:27:07.590Z,10.10
2022-11-15T23:30:29.070Z,11.18
2022-11-15T23:33:50.081Z,12.43
2022-11-15T23:36:52.790Z,10.20
2022-11-15T23:39:55.280Z,11.02
2022-11-15T23:42:58.175Z,10.55
2022-11-15T23:46:01.980Z,11.57
2022-11-15T23:49:04.667Z,10.63
2022-11-15T23:52:07.161Z,10.80
2022-11-15T23:55:10.127Z,10.38
2022-11-15T23:58:13.294Z,10.73
